createdAt,value
2023-01-22T00:02:09.368Z,99829.59
2023-01-22T00:04:43.468Z,99834.97
2023-01-22T00:07:16.550Z,99826.81
2023-01-22T00:09:49.427Z,99828.44
2023-01-22T00:12:22.341Z,99833.13
2023-01-22T00:14:55.646Z,99834.50
2023-01-22T00:17:28.448Z,99832.72
2023-01-22T00:20:02.637Z,99840.44
2023-01-22T00:22:35.382Z,99831.47
2023-01-22T00:25:11.365Z,99835.25
2023-01-22T00:27:44.134Z,99832.66
2023-01-22T00:30:17.591Z,99836.34
2023-01-22T00:32:50.447Z,99837.44
2023-01-22T00:35:24.877Z,99833.81
2023-01-22T00:37:59.285Z,99830.69
2023-01-22T00:40:32.043Z,99831.06
2023-01-22T00:43:04.823Z,99822.75
2023-01-22T00:45:37.614Z,99821.09
2023-01-22T00:48:10.373Z,99824.03
2023-01-22T00:50:44.499Z,99834.38
2023-01-22T00:53:17.287Z,99831.91
2023-01-22T00:55:54.255Z,99835.00
2023-01-22T00:58:28.021Z,99830.03
2023-01-22T01:01:02.157Z,99827.28
2023-01-22T01:03:37.550Z,99819.69
2023-01-22T01:06:15.868Z,99820.59
2023-01-22T01:08:49.787Z,99830.25
2023-01-22T01:11:25.167Z,99834.66
2023-01-22T01:13:58.374Z,99830.31
2023-01-22T01:16:32.825Z,99830.50
2023-01-22T01:19:07.778Z,99821.69
2023-01-22T01:21:41.939Z,99828.59
2023-01-22T01:24:14.777Z,99827.66
2023-01-22T01:26:49.072Z,99824.56
2023-01-22T01:29:22.034Z,99818.25
2023-01-22T01:31:55.368Z,99819.03
2023-01-22T01:34:28.274Z,99820.00
2023-01-22T01:37:02.433Z,99823.13
2023-01-22T01:39:35.201Z,99827.19
2023-01-22T01:42:08.617Z,99822.00
2023-01-22T01:44:41.525Z,99823.47
2023-01-22T01:47:30.624Z,99824.41
2023-01-22T01:50:03.459Z,99822.94
2023-01-22T01:52:37.778Z,99821.94
2023-01-22T01:55:12.306Z,99829.25
2023-01-22T01:57:45.705Z,99822.25
2023-01-22T02:00:19.879Z,99827.03
2023-01-22T02:02:52.837Z,99824.97
2023-01-22T02:05:27.883Z,99828.16
2023-01-22T02:08:02.984Z,99825.78
2023-01-22T02:10:36.686Z,99828.78
2023-01-22T02:13:13.182Z,99829.50
2023-01-22T02:15:45.965Z,99827.06
2023-01-22T02:18:19.335Z,99829.09
2023-01-22T02:20:57.563Z,99828.00
2023-01-22T02:23:33.040Z,99839.25
2023-01-22T02:26:06.482Z,99839.56
2023-01-22T02:28:39.189Z,99836.88
2023-01-22T02:31:12.771Z,99836.50
2023-01-22T02:33:45.773Z,99832.78
2023-01-22T02:36:21.313Z,99836.53
2023-01-22T02:38:54.637Z,99831.03
2023-01-22T02:41:28.722Z,99839.19
2023-01-22T02:44:01.746Z,99844.00
2023-01-22T02:46:34.614Z,99846.75
2023-01-22T02:49:07.492Z,99837.34
2023-01-22T02:51:42.618Z,99841.66
2023-01-22T02:54:15.503Z,99840.25
2023-01-22T02:56:48.610Z,99836.69
2023-01-22T02:59:21.412Z,99843.28
2023-01-22T03:01:54.397Z,99848.44
2023-01-22T03:04:28.894Z,99849.81
2023-01-22T03:07:03.139Z,99854.41
2023-01-22T03:09:35.916Z,99839.75
2023-01-22T03:12:09.186Z,99842.06
2023-01-22T03:15:00.445Z,99837.66
2023-01-22T03:17:50.596Z,99843.59
2023-01-22T03:20:40.758Z,99847.00
2023-01-22T03:23:15.630Z,99836.78
2023-01-22T03:25:48.392Z,99839.94
2023-01-22T03:28:21.185Z,99843.13
2023-01-22T03:30:59.428Z,99842.56
2023-01-22T03:33:32.327Z,99840.06
2023-01-22T03:36:07.892Z,99833.63
2023-01-22T03:38:45.054Z,99837.41
2023-01-22T03:41:22.087Z,99843.00
2023-01-22T03:43:55.705Z,99837.06
2023-01-22T03:46:34.775Z,99832.81
2023-01-22T03:49:09.050Z,99835.50
2023-01-22T03:51:42.839Z,99831.44
2023-01-22T03:54:17.414Z,99832.53
2023-01-22T03:56:50.264Z,99839.38
2023-01-22T03:59:29.680Z,99838.13
2023-01-22T04:02:02.464Z,99840.19
2023-01-22T04:04:36.885Z,99838.19
2023-01-22T04:07:09.677Z,99839.06
2023-01-22T04:09:43.820Z,99848.66
2023-01-22T04:12:16.594Z,99853.91
2023-01-22T04:14:49.864Z,99853.00
2023-01-22T04:17:26.599Z,99855.31
2023-01-22T04:20:38.183Z,99860.19
2023-01-22T04:23:37.253Z,99857.03
2023-01-22T04:26:11.464Z,99852.50
2023-01-22T04:28:44.350Z,99851.84
2023-01-22T04:31:19.629Z,99861.91
2023-01-22T04:34:02.866Z,99863.59
2023-01-22T04:36:38.279Z,99867.78
2023-01-22T04:39:11.206Z,99866.59
2023-01-22T04:41:45.976Z,99870.97
2023-01-22T04:44:19.444Z,99872.53
2023-01-22T04:46:52.223Z,99874.03
2023-01-22T04:49:25.413Z,99883.66
2023-01-22T04:51:59.464Z,99874.31
2023-01-22T04:54:33.561Z,99876.47
2023-01-22T04:57:08.432Z,99872.03
2023-01-22T04:59:41.427Z,99873.81
2023-01-22T05:02:14.314Z,99874.84
2023-01-22T05:04:47.637Z,99881.59
2023-01-22T05:07:20.593Z,99882.03
2023-01-22T05:09:53.493Z,99891.69
2023-01-22T05:12:27.664Z,99891.78
2023-01-22T05:15:04.128Z,99899.84
2023-01-22T05:17:40.838Z,99896.63
2023-01-22T05:20:13.849Z,99900.19
2023-01-22T05:22:46.846Z,99901.59
2023-01-22T05:25:20.038Z,99905.94
2023-01-22T05:27:54.629Z,99905.59
2023-01-22T05:30:39.493Z,99916.03
2023-01-22T05:33:21.748Z,99910.59
2023-01-22T05:35:58.005Z,99913.28
2023-01-22T05:38:32.076Z,99912.72
2023-01-22T05:41:05.158Z,99918.75
2023-01-22T05:43:43.895Z,99904.75
2023-01-22T05:46:22.859Z,99909.75
2023-01-22T05:49:05.107Z,99907.69
2023-01-22T05:51:40.177Z,99902.44
2023-01-22T05:54:12.962Z,99915.41
2023-01-22T05:56:48.289Z,99923.75
2023-01-22T05:59:22.366Z,99924.06
2023-01-22T06:02:05.628Z,99924.31
2023-01-22T06:04:41.033Z,99924.44
2023-01-22T06:07:24.382Z,99925.44
2023-01-22T06:09:57.186Z,99925.66
2023-01-22T06:12:29.972Z,99922.53
2023-01-22T06:15:06.292Z,99925.34
2023-01-22T06:17:40.284Z,99924.25
2023-01-22T06:20:13.303Z,99936.22
2023-01-22T06:22:46.444Z,99934.16
2023-01-22T06:25:19.258Z,99930.94
2023-01-22T06:28:13.189Z,99933.03
2023-01-22T06:30:47.910Z,99936.91
2023-01-22T06:33:20.857Z,99930.88
2023-01-22T06:35:55.677Z,99936.03
2023-01-22T06:38:29.121Z,99933.19
2023-01-22T06:41:03.873Z,99939.25
2023-01-22T06:43:38.559Z,99944.59
2023-01-22T06:46:12.747Z,99948.00
2023-01-22T06:49:01.655Z,99948.03
2023-01-22T06:51:34.547Z,99954.91
2023-01-22T06:54:07.703Z,99956.44
2023-01-22T06:56:40.619Z,99957.88
2023-01-22T06:59:13.482Z,99962.59
2023-01-22T07:01:47.770Z,99971.53
2023-01-22T07:04:20.583Z,99969.25
2023-01-22T07:06:53.365Z,99972.31
2023-01-22T07:09:26.439Z,99979.94
2023-01-22T07:12:01.135Z,99973.75
2023-01-22T07:14:37.351Z,99978.44
2023-01-22T07:17:12.099Z,99979.09
2023-01-22T07:19:45.074Z,99985.28
2023-01-22T07:22:17.926Z,99993.09
2023-01-22T07:24:50.827Z,99992.88
2023-01-22T07:27:23.596Z,99994.03
2023-01-22T07:29:56.454Z,99997.91
2023-01-22T07:32:30.641Z,99997.09
2023-01-22T07:35:03.406Z,100001.25
2023-01-22T07:37:37.234Z,100009.81
2023-01-22T07:40:11.201Z,100002.25
2023-01-22T07:42:44.011Z,99998.38
2023-01-22T07:45:19.253Z,99994.69
2023-01-22T07:47:54.559Z,100000.66
2023-01-22T07:50:29.613Z,100003.41
2023-01-22T07:53:02.487Z,100007.75
2023-01-22T07:55:35.241Z,100003.75
2023-01-22T07:58:08.489Z,100012.00
2023-01-22T08:00:41.671Z,100011.22
2023-01-22T08:03:15.976Z,100015.53
2023-01-22T08:05:48.718Z,100019.34
2023-01-22T08:08:21.558Z,100022.44
2023-01-22T08:10:54.338Z,100012.44
2023-01-22T08:13:27.140Z,100022.78
2023-01-22T08:15:59.906Z,100029.75
2023-01-22T08:18:34.086Z,100034.78
2023-01-22T08:21:07.153Z,100031.38
2023-01-22T08:23:39.914Z,100036.16
2023-01-22T08:26:12.938Z,100030.16
2023-01-22T08:28:45.704Z,100024.19
2023-01-22T08:31:27.462Z,100027.75
2023-01-22T08:34:03.047Z,100033.38
2023-01-22T08:36:35.791Z,100044.75
2023-01-22T08:39:10.713Z,100048.88
2023-01-22T08:41:43.643Z,100052.31
2023-01-22T08:44:16.483Z,100049.59
2023-01-22T08:46:49.340Z,100057.00
2023-01-22T08:49:23.589Z,100061.88
2023-01-22T08:51:56.427Z,100062.97
2023-01-22T08:54:32.072Z,100063.41
2023-01-22T08:57:05.572Z,100065.38
2023-01-22T08:59:38.351Z,100061.94
2023-01-22T09:02:12.813Z,100066.25
2023-01-22T09:04:47.116Z,100060.88
2023-01-22T09:07:20.086Z,100060.63
2023-01-22T09:09:52.832Z,100069.00
2023-01-22T09:12:25.667Z,100076.22
2023-01-22T09:14:58.488Z,100079.91
2023-01-22T09:17:31.329Z,100080.94
2023-01-22T09:20:06.311Z,100086.47
2023-01-22T09:22:39.150Z,100085.31
2023-01-22T09:25:11.923Z,100090.16
2023-01-22T09:27:44.904Z,100087.47
2023-01-22T09:30:18.255Z,100099.44
2023-01-22T09:32:51.497Z,100095.06
2023-01-22T09:35:26.879Z,100094.00
2023-01-22T09:37:59.651Z,100095.53
2023-01-22T09:40:37.275Z,100104.09
2023-01-22T09:43:22.381Z,100096.63
2023-01-22T09:45:58.752Z,100103.09
2023-01-22T09:48:42.272Z,100102.75
2023-01-22T09:51:17.240Z,100102.78
2023-01-22T09:53:56.268Z,100104.09
2023-01-22T09:56:37.711Z,100104.03
2023-01-22T09:59:16.557Z,100114.13
2023-01-22T10:01:53.449Z,100115.78
2023-01-22T10:04:36.026Z,100116.44
2023-01-22T10:07:21.795Z,100112.22
2023-01-22T10:09:57.389Z,100104.22
2023-01-22T10:12:30.811Z,100117.13
2023-01-22T10:15:03.553Z,100116.19
2023-01-22T10:17:37.787Z,100119.59
2023-01-22T10:20:13.725Z,100123.06
2023-01-22T10:22:48.935Z,100122.75
2023-01-22T10:25:22.149Z,100123.38
2023-01-22T10:27:59.079Z,100131.28
2023-01-22T10:30:32.034Z,100129.59
2023-01-22T10:33:06.794Z,100130.47
2023-01-22T10:35:44.803Z,100136.09
2023-01-22T10:38:27.181Z,100137.84
2023-01-22T10:41:01.582Z,100130.72
2023-01-22T10:43:35.560Z,100138.00
2023-01-22T10:46:18.642Z,100134.94
2023-01-22T10:48:59.971Z,100126.34
2023-01-22T10:51:36.687Z,100131.22
2023-01-22T10:54:21.529Z,100132.28
2023-01-22T10:57:04.444Z,100120.25
2023-01-22T10:59:38.047Z,100124.66
2023-01-22T11:02:19.136Z,100128.22
2023-01-22T11:04:52.378Z,100128.22
2023-01-22T11:07:32.451Z,100124.94
2023-01-22T11:10:17.310Z,100128.34
2023-01-22T11:12:53.530Z,100126.66
2023-01-22T11:15:37.808Z,100123.75
2023-01-22T11:18:18.021Z,100130.97
2023-01-22T11:20:58.567Z,100122.84
2023-01-22T11:23:36.670Z,100129.22
2023-01-22T11:26:22.876Z,100117.72
2023-01-22T11:29:00.501Z,100132.72
2023-01-22T11:31:55.238Z,100131.06
2023-01-22T11:34:46.724Z,100139.13
2023-01-22T11:37:24.236Z,100131.97
2023-01-22T11:40:13.404Z,100135.88
2023-01-22T11:43:03.883Z,100138.28
2023-01-22T11:45:50.512Z,100129.25
2023-01-22T11:48:40.016Z,100134.34
2023-01-22T11:51:25.206Z,100131.50
2023-01-22T11:54:13.296Z,100127.59
2023-01-22T11:57:06.525Z,100124.59
2023-01-22T11:59:59.165Z,100125.41
2023-01-22T12:02:47.572Z,100118.59
2023-01-22T12:05:33.555Z,100116.78
2023-01-22T12:08:20.617Z,100116.88
2023-01-22T12:11:15.516Z,100117.31
2023-01-22T12:14:12.116Z,100115.69
2023-01-22T12:16:55.902Z,100121.53
2023-01-22T12:19:48.882Z,100116.38
2023-01-22T12:22:32.986Z,100112.16
2023-01-22T12:25:20.632Z,100110.50
2023-01-22T12:28:01.524Z,100110.53
2023-01-22T12:30:44.665Z,100104.72
2023-01-22T12:33:22.007Z,100099.81
2023-01-22T12:35:59.271Z,100103.38
2023-01-22T12:38:41.136Z,100109.84
2023-01-22T12:41:28.449Z,100102.13
2023-01-22T12:44:03.899Z,100101.53
2023-01-22T12:46:49.966Z,100101.25
2023-01-22T12:49:24.212Z,100105.25
2023-01-22T12:52:00.204Z,100103.13
2023-01-22T12:54:36.314Z,100105.69
2023-01-22T12:57:25.341Z,100110.72
2023-01-22T12:59:59.269Z,100112.03
2023-01-22T13:02:37.812Z,100106.78
2023-01-22T13:05:18.671Z,100107.66
2023-01-22T13:08:02.517Z,100110.75
2023-01-22T13:10:36.903Z,100113.09
2023-01-22T13:13:23.182Z,100115.16
2023-01-22T13:15:59.871Z,100119.31
2023-01-22T13:18:36.778Z,100108.91
2023-01-22T13:21:13.621Z,100106.06
2023-01-22T13:23:48.568Z,100116.41
2023-01-22T13:26:23.611Z,100110.69
2023-01-22T13:28:59.060Z,100114.44
2023-01-22T13:31:32.901Z,100110.97
2023-01-22T13:34:08.921Z,100119.22
2023-01-22T13:36:48.151Z,100119.25
2023-01-22T13:39:29.800Z,100116.22
2023-01-22T13:42:05.958Z,100119.81
2023-01-22T13:44:41.660Z,100111.03
2023-01-22T13:47:27.513Z,100118.34
2023-01-22T13:50:01.023Z,100113.41
2023-01-22T13:52:35.218Z,100114.53
2023-01-22T13:55:16.539Z,100111.53
2023-01-22T13:57:50.978Z,100107.19
2023-01-22T14:00:26.215Z,100112.47
2023-01-22T14:03:00.252Z,100118.94
2023-01-22T14:05:35.642Z,100119.28
2023-01-22T14:08:12.012Z,100125.69
2023-01-22T14:10:44.863Z,100126.00
2023-01-22T14:13:17.715Z,100128.34
2023-01-22T14:15:56.718Z,100121.53
2023-01-22T14:18:29.885Z,100127.16
2023-01-22T14:21:02.767Z,100132.88
2023-01-22T14:23:36.841Z,100138.19
2023-01-22T14:26:10.460Z,100142.16
2023-01-22T14:28:43.180Z,100142.53
2023-01-22T14:31:16.024Z,100138.72
2023-01-22T14:33:48.984Z,100135.88
2023-01-22T14:36:21.742Z,100139.00
2023-01-22T14:38:57.582Z,100137.75
2023-01-22T14:41:31.342Z,100139.34
2023-01-22T14:44:04.807Z,100145.72
2023-01-22T14:46:38.146Z,100150.16
2023-01-22T14:49:10.895Z,100150.13
2023-01-22T14:51:43.777Z,100154.28
2023-01-22T14:54:17.967Z,100160.66
2023-01-22T14:56:50.777Z,100151.84
2023-01-22T14:59:23.510Z,100152.91
2023-01-22T15:01:56.300Z,100159.84
2023-01-22T15:04:29.080Z,100163.34
2023-01-22T15:07:01.832Z,100174.69
2023-01-22T15:09:35.850Z,100170.75
2023-01-22T15:12:08.969Z,100180.28
2023-01-22T15:14:41.697Z,100170.38
2023-01-22T15:17:14.435Z,100171.31
2023-01-22T15:19:47.202Z,100176.88
2023-01-22T15:22:20.003Z,100177.44
2023-01-22T15:24:54.164Z,100173.34
2023-01-22T15:27:27.102Z,100177.13
2023-01-22T15:29:59.844Z,100178.84
2023-01-22T15:32:32.981Z,100185.72
2023-01-22T15:35:06.490Z,100191.06
2023-01-22T15:37:39.246Z,100180.47
2023-01-22T15:40:15.147Z,100190.88
2023-01-22T15:42:47.904Z,100184.28
2023-01-22T15:45:20.787Z,100191.84
2023-01-22T15:47:54.616Z,100193.00
2023-01-22T15:50:28.024Z,100197.47
2023-01-22T15:53:00.841Z,100201.13
2023-01-22T15:55:35.017Z,100198.41
2023-01-22T15:58:08.023Z,100199.94
2023-01-22T16:00:40.779Z,100209.09
2023-01-22T16:03:13.493Z,100208.28
2023-01-22T16:05:46.283Z,100217.41
2023-01-22T16:08:19.169Z,100211.47
2023-01-22T16:10:53.393Z,100212.28
2023-01-22T16:13:26.116Z,100217.81
2023-01-22T16:15:59.232Z,100215.41
2023-01-22T16:18:33.344Z,100215.84
2023-01-22T16:21:07.258Z,100219.16
2023-01-22T16:23:43.083Z,100221.72
2023-01-22T16:26:21.704Z,100228.50
2023-01-22T16:28:56.416Z,100222.50
2023-01-22T16:31:31.003Z,100221.16
2023-01-22T16:34:10.545Z,100226.97
2023-01-22T16:36:44.623Z,100226.66
2023-01-22T16:39:19.149Z,100229.03
2023-01-22T16:41:53.979Z,100223.53
2023-01-22T16:44:27.586Z,100237.28
2023-01-22T16:47:01.686Z,100227.19
2023-01-22T16:49:35.391Z,100226.72
2023-01-22T16:52:22.004Z,100232.00
2023-01-22T16:54:56.008Z,100238.78
2023-01-22T16:57:30.316Z,100237.75
2023-01-22T17:00:03.885Z,100235.19
2023-01-22T17:02:36.767Z,100239.88
2023-01-22T17:05:12.949Z,100250.41
2023-01-22T17:07:45.849Z,100243.72
2023-01-22T17:10:19.282Z,100241.34
2023-01-22T17:12:53.480Z,100250.97
2023-01-22T17:15:26.223Z,100249.72
2023-01-22T17:17:59.691Z,100246.16
2023-01-22T17:20:32.484Z,100246.16
2023-01-22T17:23:05.215Z,100248.81
2023-01-22T17:25:40.447Z,100251.66
2023-01-22T17:28:14.550Z,100260.28
2023-01-22T17:30:47.350Z,100261.41
2023-01-22T17:33:20.888Z,100260.38
2023-01-22T17:35:59.244Z,100268.06
2023-01-22T17:38:37.414Z,100265.22
2023-01-22T17:41:14.220Z,100267.97
2023-01-22T17:43:51.941Z,100275.06
2023-01-22T17:46:27.240Z,100281.41
2023-01-22T17:49:01.043Z,100281.50
2023-01-22T17:51:35.558Z,100281.97
2023-01-22T17:54:08.506Z,100285.50
2023-01-22T17:56:45.501Z,100289.41
2023-01-22T17:59:19.945Z,100293.34
2023-01-22T18:01:52.930Z,100291.03
2023-01-22T18:04:25.883Z,100300.00
2023-01-22T18:06:58.717Z,100306.19
2023-01-22T18:09:31.676Z,100308.16
2023-01-22T18:12:04.968Z,100317.56
2023-01-22T18:14:40.741Z,100314.94
2023-01-22T18:17:13.454Z,100323.31
2023-01-22T18:19:46.193Z,100315.94
2023-01-22T18:22:19.179Z,100318.59
2023-01-22T18:24:51.947Z,100325.03
2023-01-22T18:27:24.815Z,100319.88
2023-01-22T18:30:00.126Z,100327.78
2023-01-22T18:32:35.865Z,100329.72
2023-01-22T18:35:09.797Z,100328.94
2023-01-22T18:37:42.570Z,100329.59
2023-01-22T18:40:15.525Z,100346.16
2023-01-22T18:42:50.027Z,100335.81
2023-01-22T18:45:24.416Z,100342.69
2023-01-22T18:47:57.372Z,100346.03
2023-01-22T18:50:30.150Z,100343.72
2023-01-22T18:53:02.899Z,100350.84
2023-01-22T18:55:36.694Z,100355.53
2023-01-22T18:58:18.628Z,100352.94
2023-01-22T19:00:52.841Z,100349.59
2023-01-22T19:03:27.190Z,100355.53
2023-01-22T19:06:00.529Z,100357.41
2023-01-22T19:08:34.907Z,100364.56
2023-01-22T19:11:08.678Z,100360.56
2023-01-22T19:13:42.287Z,100358.72
2023-01-22T19:16:18.757Z,100364.47
2023-01-22T19:18:55.500Z,100366.34
2023-01-22T19:21:28.729Z,100368.13
2023-01-22T19:24:02.949Z,100366.34
2023-01-22T19:26:37.371Z,100359.84
2023-01-22T19:29:13.598Z,100366.91
2023-01-22T19:31:51.908Z,100366.91
2023-01-22T19:34:25.555Z,100363.03
2023-01-22T19:37:02.265Z,100363.22
2023-01-22T19:39:35.803Z,100364.28
2023-01-22T19:42:08.696Z,100370.66
2023-01-22T19:44:42.896Z,100365.28
2023-01-22T19:47:17.836Z,100371.53
2023-01-22T19:49:50.933Z,100380.06
2023-01-22T19:52:23.696Z,100375.91
2023-01-22T19:54:56.420Z,100380.88
2023-01-22T19:57:31.733Z,100368.75
2023-01-22T20:00:06.078Z,100362.28
2023-01-22T20:02:43.394Z,100371.97
2023-01-22T20:05:17.676Z,100377.53
2023-01-22T20:07:50.968Z,100371.16
2023-01-22T20:10:23.891Z,100372.69
2023-01-22T20:12:56.972Z,100368.66
2023-01-22T20:15:29.759Z,100374.31
2023-01-22T20:18:03.950Z,100375.84
2023-01-22T20:20:37.381Z,100371.41
2023-01-22T20:23:10.141Z,100375.31
2023-01-22T20:25:43.023Z,100380.88
2023-01-22T20:28:16.299Z,100374.78
2023-01-22T20:30:58.496Z,100374.91
2023-01-22T20:33:33.689Z,100380.63
2023-01-22T20:36:08.589Z,100385.00
2023-01-22T20:38:41.560Z,100380.28
2023-01-22T20:41:15.581Z,100383.81
2023-01-22T20:43:48.772Z,100379.69
2023-01-22T20:46:24.458Z,100381.97
2023-01-22T20:48:58.921Z,100387.59
2023-01-22T20:51:31.931Z,100373.31
2023-01-22T20:54:05.835Z,100384.72
2023-01-22T20:56:38.749Z,100389.50
2023-01-22T20:59:14.060Z,100387.75
2023-01-22T21:01:47.256Z,100393.31
2023-01-22T21:04:21.761Z,100386.94
2023-01-22T21:06:56.499Z,100395.31
2023-01-22T21:09:30.965Z,100392.47
2023-01-22T21:12:03.833Z,100388.03
2023-01-22T21:14:36.859Z,100388.22
2023-01-22T21:17:11.805Z,100389.25
2023-01-22T21:19:45.949Z,100388.50
2023-01-22T21:22:19.007Z,100382.81
2023-01-22T21:24:51.819Z,100375.28
2023-01-22T21:27:24.627Z,100393.75
2023-01-22T21:29:57.895Z,100394.53
2023-01-22T21:32:30.752Z,100390.56
2023-01-22T21:35:05.464Z,100400.13
2023-01-22T21:37:38.223Z,100397.84
2023-01-22T21:40:13.430Z,100398.31
2023-01-22T21:43:03.727Z,100413.03
2023-01-22T21:45:57.113Z,100411.28
2023-01-22T21:48:30.279Z,100415.59
2023-01-22T21:51:04.733Z,100419.28
2023-01-22T21:53:37.506Z,100416.59
2023-01-22T21:56:10.267Z,100415.38
2023-01-22T21:58:45.365Z,100418.59
2023-01-22T22:01:21.845Z,100417.31
2023-01-22T22:03:55.324Z,100420.00
2023-01-22T22:06:31.075Z,100418.31
2023-01-22T22:09:06.619Z,100419.28
2023-01-22T22:11:39.977Z,100425.09
2023-01-22T22:14:15.845Z,100425.72
2023-01-22T22:16:49.863Z,100428.72
2023-01-22T22:19:24.344Z,100430.47
2023-01-22T22:21:58.473Z,100425.44
2023-01-22T22:24:31.295Z,100430.09
2023-01-22T22:27:04.453Z,100427.03
2023-01-22T22:29:37.330Z,100426.38
2023-01-22T22:32:10.069Z,100422.63
2023-01-22T22:34:43.067Z,100428.66
2023-01-22T22:37:17.515Z,100429.50
2023-01-22T22:39:50.343Z,100431.81
2023-01-22T22:42:23.095Z,100424.91
2023-01-22T22:44:55.885Z,100424.25
2023-01-22T22:47:28.966Z,100421.50
2023-01-22T22:50:01.665Z,100427.81
2023-01-22T22:52:35.816Z,100433.22
2023-01-22T22:55:09.366Z,100433.06
2023-01-22T22:57:42.148Z,100440.00
2023-01-22T23:00:15.358Z,100439.38
2023-01-22T23:02:48.101Z,100440.41
2023-01-22T23:05:20.888Z,100439.41
2023-01-22T23:07:55.045Z,100435.41
2023-01-22T23:10:30.534Z,100432.91
2023-01-22T23:13:04.531Z,100435.50
2023-01-22T23:15:37.397Z,100435.97
2023-01-22T23:18:10.171Z,100440.50
2023-01-22T23:20:42.957Z,100434.03
2023-01-22T23:23:17.882Z,100442.69
2023-01-22T23:25:50.955Z,100440.50
2023-01-22T23:28:23.766Z,100442.09
2023-01-22T23:30:56.852Z,100439.22
2023-01-22T23:33:29.702Z,100443.81
2023-01-22T23:36:02.702Z,100437.44
2023-01-22T23:38:36.851Z,100440.75
2023-01-22T23:41:13.944Z,100452.78
2023-01-22T23:43:47.212Z,100446.25
2023-01-22T23:46:22.068Z,100450.50
2023-01-22T23:48:56.320Z,100444.84
2023-01-22T23:51:29.709Z,100439.34
2023-01-22T23:54:03.989Z,100451.75
2023-01-22T23:56:37.397Z,100451.84
2023-01-22T23:59:11.360Z,100450.38
